Time;durP1;ratioP1;P1;durP2;ratioP2;P2;SDS_P1;SDS_P2;PMS_P1;PMS_P2;Temp;Humidity;BMP_temperature;BMP_pressure;BME280_temperature;BME280_humidity;BME280_pressure;Samples;Min_cycle;Max_cycle;Signal;HPM_P1;HPM_P2
2023/02/24 00:01:58;;;;;;;18.92;7.32;;;-6.70;84.20;;;;;;5046345;28;19911;-78
2023/02/24 00:04:26;;;;;;;15.25;7.82;;;-6.70;84.30;;;;;;5031412;28;20436;-78
2023/02/24 00:06:52;;;;;;;16.73;8.88;;;-6.60;84.30;;;;;;5045287;28;20063;-79
2023/02/24 00:09:25;;;;;;;18.75;7.95;;;-6.60;84.30;;;;;;5047079;28;20104;-78
2023/02/24 00:12:09;;;;;;;17.38;8.27;;;-6.60;84.20;;;;;;5049251;28;20052;-78
2023/02/24 00:14:37;;;;;;;15.10;8.32;;;-6.50;83.90;;;;;;5052966;28;20064;-79
2023/02/24 00:17:06;;;;;;;14.57;8.43;;;-6.50;83.60;;;;;;5036127;28;20024;-79
2023/02/24 00:19:33;;;;;;;15.05;8.50;;;-6.50;83.30;;;;;;5053416;28;20013;-78
2023/02/24 00:22:00;;;;;;;17.23;6.83;;;-6.60;82.60;;;;;;5059883;28;20393;-79
2023/02/24 00:24:26;;;;;;;;;;;-6.70;82.60;;;;;;5063891;28;20021;-78
2023/02/24 00:26:54;;;;;;;15.73;7.60;;;-6.60;83.00;;;;;;5065485;28;20333;-77
2023/02/24 00:29:21;;;;;;;21.02;9.10;;;-6.60;83.10;;;;;;5061115;28;20132;-80
2023/02/24 00:31:57;;;;;;;17.73;8.73;;;-6.60;83.20;;;;;;5058194;28;20029;-79
2023/02/24 00:34:27;;;;;;;12.43;7.72;;;-6.60;83.20;;;;;;5055713;28;20024;-79
2023/02/24 00:36:53;;;;;;;19.25;8.00;;;-6.50;83.30;;;;;;5054504;28;20052;-78
2023/02/24 00:39:29;;;;;;;15.55;8.75;;;-6.50;83.00;;;;;;5053533;28;20021;-78
2023/02/24 00:42:03;;;;;;;12.65;6.97;;;-6.50;82.90;;;;;;5053422;28;20472;-79
2023/02/24 00:44:37;;;;;;;13.63;7.60;;;-6.50;82.90;;;;;;5053700;28;20013;-78
2023/02/24 00:47:05;;;;;;;10.80;5.72;;;-6.50;82.50;;;;;;5056262;28;20024;-79
2023/02/24 00:49:32;;;;;;;18.38;9.15;;;-6.50;82.60;;;;;;5054523;28;20021;-78
2023/02/24 00:51:58;;;;;;;14.02;7.82;;;-6.50;82.30;;;;;;5052844;28;20032;-80
2023/02/24 00:54:28;;;;;;;13.60;7.53;;;-6.60;82.30;;;;;;5052772;28;20160;-77
2023/02/24 00:56:55;;;;;;;11.75;7.43;;;-6.60;82.10;;;;;;5034837;28;20025;-78
2023/02/24 00:59:22;;;;;;;14.35;8.23;;;-6.50;82.10;;;;;;5053569;28;20021;-78
2023/02/24 01:01:49;;;;;;;12.10;7.78;;;-6.50;81.90;;;;;;5049382;28;20124;-78
2023/02/24 01:04:17;;;;;;;12.98;6.63;;;-6.50;81.80;;;;;;5049762;28;20754;-80
2023/02/24 01:06:59;;;;;;;11.07;7.38;;;-6.50;81.70;;;;;;5052763;28;20474;-78
2023/02/24 01:09:27;;;;;;;16.20;8.20;;;-6.60;81.50;;;;;;5053115;28;20017;-79
2023/02/24 01:14:41;;;;;;;14.02;7.30;;;-6.60;81.50;;;;;;5052280;28;20071;-78
2023/02/24 01:17:07;;;;;;;14.57;8.15;;;-6.60;81.50;;;;;;5051561;28;20368;-78
2023/02/24 01:19:34;;;;;;;13.75;7.10;;;-6.60;81.50;;;;;;5052105;28;20017;-78
2023/02/24 01:22:05;;;;;;;11.32;7.65;;;-6.60;81.10;;;;;;5055715;28;20508;-79
2023/02/24 01:24:34;;;;;;;12.55;7.60;;;-6.60;81.20;;;;;;5050577;28;20033;-75
2023/02/24 01:27:00;;;;;;;10.77;6.00;;;-6.60;81.00;;;;;;5061137;28;20029;-79
2023/02/24 01:29:26;;;;;;;14.13;8.65;;;-6.60;80.80;;;;;;5060859;28;20029;-77
2023/02/24 01:31:56;;;;;;;8.35;3.67;;;-6.60;80.70;;;;;;5055433;28;20052;-77
2023/02/24 01:34:23;;;;;;;12.68;6.63;;;-6.60;80.70;;;;;;5054527;28;20028;-78
2023/02/24 01:36:49;;;;;;;15.27;8.45;;;-6.60;80.60;;;;;;5056361;28;20031;-78
2023/02/24 01:39:15;;;;;;;14.20;7.65;;;-6.70;80.70;;;;;;5056625;28;20381;-77
2023/02/24 01:41:43;;;;;;;12.15;6.28;;;-6.70;80.80;;;;;;5056602;28;20094;-79
2023/02/24 01:44:13;;;;;;;15.27;7.50;;;-6.60;80.70;;;;;;5057073;28;20025;-77
2023/02/24 01:46:47;;;;;;;11.32;6.90;;;-6.70;80.50;;;;;;5044889;28;20025;-78
2023/02/24 01:49:20;;;;;;;16.80;7.68;;;-6.70;80.80;;;;;;5054893;28;20539;-78
2023/02/24 01:51:57;;;;;;;16.67;8.32;;;-6.70;80.70;;;;;;5055606;28;20053;-77
2023/02/24 01:54:24;;;;;;;;;;;-6.70;80.20;;;;;;5056943;28;20032;-78
2023/02/24 01:56:51;;;;;;;11.82;6.15;;;-6.80;80.50;;;;;;5054937;28;19908;-77
2023/02/24 01:59:20;;;;;;;15.27;7.72;;;-6.90;80.50;;;;;;5055288;28;20474;-77
2023/02/24 02:01:47;;;;;;;13.18;7.43;;;-6.90;80.70;;;;;;5047123;28;20461;-79
2023/02/24 02:04:33;;;;;;;13.00;7.85;;;-7.00;80.70;;;;;;5050151;28;20032;-79
2023/02/24 02:07:00;;;;;;;9.35;5.47;;;-6.90;81.00;;;;;;5055391;28;20025;-78
2023/02/24 02:09:27;;;;;;;12.38;7.47;;;-7.00;80.90;;;;;;5055639;28;20024;-77
2023/02/24 02:11:53;;;;;;;12.43;6.80;;;-7.10;80.90;;;;;;5037581;28;20132;-77
2023/02/24 02:14:23;;;;;;;17.90;8.18;;;-7.10;81.00;;;;;;5055249;28;20025;-78
2023/02/24 02:17:10;;;;;;;13.45;7.40;;;-7.10;81.00;;;;;;5055222;28;20021;-78
2023/02/24 02:19:35;;;;;;;;;;;-7.20;81.20;;;;;;5054385;28;20364;-79
2023/02/24 02:22:44;;;;;;;11.43;6.38;;;-7.20;81.30;;;;;;5056929;28;20003;-78
2023/02/24 02:25:47;;;;;;;12.57;6.63;;;-7.30;81.40;;;;;;5015253;28;20037;-78
2023/02/24 02:28:33;;;;;;;12.98;6.50;;;-7.30;81.50;;;;;;5054463;28;20025;-78
2023/02/24 02:31:56;;;;;;;15.18;6.90;;;-7.30;81.60;;;;;;5054436;28;20036;-78
2023/02/24 02:34:45;;;;;;;13.88;6.47;;;-7.30;81.90;;;;;;4986192;28;20077;-79
2023/02/24 02:37:24;;;;;;;12.75;8.30;;;-7.30;81.90;;;;;;5012940;28;20030;-77
2023/02/24 02:40:22;;;;;;;12.50;6.30;;;-7.30;81.90;;;;;;4993703;28;20042;-78
2023/02/24 02:42:57;;;;;;;10.57;6.05;;;-7.30;82.10;;;;;;4973241;28;20089;-78
2023/02/24 02:45:46;;;;;;;12.93;6.78;;;-7.30;82.30;;;;;;5001397;28;20034;-78
2023/02/24 02:48:29;;;;;;;13.60;8.32;;;-7.30;82.40;;;;;;5012799;28;20566;-79
2023/02/24 02:51:23;;;;;;;9.73;5.75;;;-7.20;82.40;;;;;;5012316;28;20117;-77
2023/02/24 02:54:01;;;;;;;13.63;7.40;;;-7.10;82.40;;;;;;5012102;28;20662;-78
2023/02/24 02:56:41;;;;;;;12.80;7.38;;;-7.00;82.30;;;;;;4994084;28;20078;-78
2023/02/24 02:59:11;;;;;;;14.15;7.13;;;-7.00;82.30;;;;;;4994740;28;20041;-78
2023/02/24 03:01:40;;;;;;;14.35;5.93;;;-7.00;82.10;;;;;;5007085;28;20082;-78
2023/02/24 03:04:10;;;;;;;11.48;6.03;;;-6.90;82.20;;;;;;5016093;28;20033;-79
2023/02/24 03:06:59;;;;;;;14.18;8.02;;;-6.80;82.20;;;;;;5054087;28;20028;-79
2023/02/24 03:09:31;;;;;;;12.05;7.90;;;-6.80;82.10;;;;;;5054277;28;20828;-79
2023/02/24 03:12:03;;;;;;;17.92;9.10;;;-6.70;82.10;;;;;;5052446;28;20394;-78
2023/02/24 03:14:36;;;;;;;12.30;7.15;;;-6.70;81.90;;;;;;5053986;28;20386;-76
2023/02/24 03:17:11;;;;;;;13.20;8.50;;;-6.80;81.70;;;;;;5053933;28;20021;-77
2023/02/24 03:19:38;;;;;;;12.55;7.03;;;-6.80;82.00;;;;;;5053864;28;20010;-78
2023/02/24 03:22:12;;;;;;;15.15;8.40;;;-6.90;82.10;;;;;;5053621;28;20020;-79
2023/02/24 03:24:40;;;;;;;11.55;6.72;;;-6.90;82.20;;;;;;5053642;28;20021;-78
2023/02/24 03:27:09;;;;;;;;;;;-6.90;82.30;;;;;;5052914;28;20025;-77
2023/02/24 03:29:44;;;;;;;12.60;6.68;;;-6.90;82.40;;;;;;5053525;28;19912;-79
2023/02/24 03:32:22;;;;;;;15.10;8.07;;;-6.90;82.60;;;;;;5035721;28;20033;-79
2023/02/24 03:35:12;;;;;;;13.85;8.07;;;-7.00;83.30;;;;;;5035721;28;20025;-77
2023/02/24 03:37:38;;;;;;;15.15;7.65;;;-7.00;82.80;;;;;;5055997;28;20362;-79
2023/02/24 03:40:13;;;;;;;13.95;6.95;;;-7.00;83.00;;;;;;5053186;28;20011;-79
2023/02/24 03:42:51;;;;;;;12.70;6.22;;;-6.90;83.00;;;;;;5052917;28;20036;-79
2023/02/24 03:45:21;;;;;;;13.68;7.03;;;-6.90;83.00;;;;;;5053020;28;20104;-78
2023/02/24 03:47:47;;;;;;;12.00;6.88;;;-6.90;82.90;;;;;;5048981;28;20029;-79
2023/02/24 03:50:18;;;;;;;12.40;6.90;;;-6.90;83.00;;;;;;5054138;28;20009;-78
2023/02/24 03:53:02;;;;;;;12.90;6.93;;;-6.80;83.00;;;;;;5053316;28;20116;-77
2023/02/24 03:55:47;;;;;;;13.65;7.43;;;-6.80;83.00;;;;;;5053338;28;20406;-77
2023/02/24 03:58:37;;;;;;;8.25;6.28;;;-6.80;83.10;;;;;;5052719;28;20021;-78
2023/02/24 04:01:14;;;;;;;9.82;6.95;;;-6.80;83.20;;;;;;5044326;28;20025;-79
2023/02/24 04:03:59;;;;;;;16.92;7.45;;;-6.80;83.20;;;;;;5052791;28;20422;-78
2023/02/24 04:06:48;;;;;;;11.52;5.60;;;-6.70;83.20;;;;;;5039196;28;20091;-79
2023/02/24 04:09:40;;;;;;;14.55;7.20;;;-6.70;83.00;;;;;;5052771;28;20040;-78
2023/02/24 04:12:18;;;;;;;13.88;5.93;;;-6.70;82.80;;;;;;5052533;28;20080;-77
2023/02/24 04:14:50;;;;;;;14.73;5.18;;;-6.70;82.60;;;;;;5054861;28;20017;-78
2023/02/24 04:17:25;;;;;;;10.18;5.60;;;-6.70;83.00;;;;;;5046214;28;20029;-80
2023/02/24 04:19:56;;;;;;;12.15;5.70;;;-6.70;83.00;;;;;;5054310;28;20049;-79
2023/02/24 04:22:25;;;;;;;12.55;6.00;;;-6.70;82.90;;;;;;5052956;28;20045;-78
2023/02/24 04:24:55;;;;;;;14.90;8.35;;;-6.80;83.10;;;;;;5054717;28;20029;-78
2023/02/24 04:27:22;;;;;;;12.68;7.15;;;-6.70;83.10;;;;;;5057277;28;20035;-78
2023/02/24 04:29:58;;;;;;;11.68;6.63;;;-6.70;83.10;;;;;;5052778;28;20040;-79
2023/02/24 04:32:28;;;;;;;11.38;6.13;;;-6.60;83.10;;;;;;5051388;28;20033;-78
2023/02/24 04:35:08;;;;;;;10.85;7.38;;;-6.60;83.10;;;;;;5052331;28;20017;-79
2023/02/24 04:37:38;;;;;;;14.57;7.53;;;-6.60;83.00;;;;;;5052626;28;20047;-77
2023/02/24 04:40:11;;;;;;;9.82;5.60;;;-6.70;82.70;;;;;;5052177;28;20100;-80
2023/02/24 04:42:45;;;;;;;14.00;7.68;;;-6.70;82.90;;;;;;5053547;28;20536;-79
2023/02/24 04:45:26;;;;;;;12.20;6.40;;;-6.60;83.00;;;;;;5052226;28;20025;-79
2023/02/24 04:47:59;;;;;;;12.23;7.15;;;-6.60;83.10;;;;;;5051813;28;20028;-79
2023/02/24 04:50:36;;;;;;;15.15;8.60;;;-6.60;83.00;;;;;;5052791;28;20431;-79
2023/02/24 04:53:06;;;;;;;10.13;6.43;;;-6.60;83.10;;;;;;5055197;28;20033;-78
2023/02/24 04:55:38;;;;;;;13.73;6.03;;;-6.50;83.20;;;;;;5059612;28;20048;-80
2023/02/24 04:58:05;;;;;;;16.33;7.50;;;-6.60;83.10;;;;;;5058077;28;20486;-79
2023/02/24 05:00:34;;;;;;;10.38;6.55;;;-6.50;83.30;;;;;;5056372;28;20021;-79
2023/02/24 05:03:02;;;;;;;15.25;6.97;;;-6.60;83.10;;;;;;5042902;28;20048;-78
2023/02/24 05:05:28;;;;;;;13.90;7.53;;;-6.50;83.30;;;;;;5054812;28;20029;-80
2023/02/24 05:08:05;;;;;;;13.00;6.30;;;-6.50;83.20;;;;;;5060045;28;20028;-77
2023/02/24 05:10:39;;;;;;;9.57;6.43;;;-6.50;82.80;;;;;;5063051;28;20031;-78
2023/02/24 05:13:06;;;;;;;16.15;7.93;;;-6.50;82.80;;;;;;5057147;28;20048;-80
2023/02/24 05:15:32;;;;;;;;;;;-6.50;83.00;;;;;;5056800;28;20096;-76
2023/02/24 05:17:59;;;;;;;12.95;7.13;;;-6.40;82.90;;;;;;5056949;28;19951;-78
2023/02/24 05:23:11;;;;;;;15.50;6.78;;;-6.40;82.60;;;;;;5056106;28;20032;-78
2023/02/24 05:25:41;;;;;;;16.80;8.20;;;-6.30;82.70;;;;;;5058569;28;20389;-78
2023/02/24 05:28:08;;;;;;;19.70;7.80;;;-6.30;82.90;;;;;;5041267;28;20021;-80
2023/02/24 05:30:34;;;;;;;14.23;7.13;;;-6.30;82.60;;;;;;5059424;28;20028;-80
2023/02/24 05:33:00;;;;;;;12.68;7.07;;;-6.30;82.90;;;;;;5067125;28;20056;-78
2023/02/24 05:35:26;;;;;;;13.70;7.43;;;-6.20;82.60;;;;;;5071717;28;20025;-79
2023/02/24 05:37:53;;;;;;;16.45;8.15;;;-6.20;82.60;;;;;;5060477;28;20029;-79
2023/02/24 05:40:22;;;;;;;13.90;7.90;;;-6.20;82.80;;;;;;5060470;28;20024;-79
2023/02/24 05:42:48;;;;;;;16.23;8.85;;;-6.10;82.80;;;;;;5059202;28;20108;-78
2023/02/24 05:45:14;;;;;;;12.55;7.28;;;-6.10;82.60;;;;;;5059450;28;20371;-77
2023/02/24 05:47:45;;;;;;;15.38;8.02;;;-6.00;82.70;;;;;;5058390;28;20057;-78
2023/02/24 05:50:12;;;;;;;12.13;7.80;;;-6.00;82.60;;;;;;5060073;28;20033;-78
2023/02/24 05:52:38;;;;;;;20.40;7.55;;;-5.90;82.70;;;;;;5059988;28;20400;-77
2023/02/24 05:55:06;;;;;;;19.05;9.02;;;-5.90;82.50;;;;;;5061501;28;20079;-80
2023/02/24 05:57:34;;;;;;;13.02;7.28;;;-5.90;82.20;;;;;;5059139;28;20017;-76
2023/02/24 06:00:11;;;;;;;14.32;7.15;;;-5.80;82.40;;;;;;5048731;28;20025;-76
2023/02/24 06:02:37;;;;;;;12.60;7.43;;;-5.80;82.50;;;;;;5059285;28;20032;-76
2023/02/24 06:05:03;;;;;;;13.82;8.38;;;-5.80;82.60;;;;;;5059919;28;20025;-79
2023/02/24 06:07:33;;;;;;;12.60;7.80;;;-5.70;82.80;;;;;;5062386;28;20021;-78
2023/02/24 06:10:00;;;;;;;13.25;7.50;;;-5.70;82.60;;;;;;5061123;28;20036;-79
2023/02/24 06:12:34;;;;;;;15.30;8.60;;;-5.60;82.80;;;;;;5056432;28;20133;-77
2023/02/24 06:15:06;;;;;;;8.90;5.57;;;-5.60;82.60;;;;;;5061913;28;20085;-77
2023/02/24 06:17:32;;;;;;;17.10;8.70;;;-5.60;82.60;;;;;;5044793;28;20025;-79
2023/02/24 06:19:58;;;;;;;15.07;8.70;;;-5.60;82.80;;;;;;5047730;28;20013;-79
2023/02/24 06:22:25;;;;;;;15.02;7.78;;;-5.60;82.90;;;;;;5059140;28;20352;-80
2023/02/24 06:24:53;;;;;;;14.70;6.57;;;-5.50;83.20;;;;;;5051073;28;20402;-78
2023/02/24 06:27:20;;;;;;;11.63;6.47;;;-5.50;83.70;;;;;;5054575;28;20030;-77
2023/02/24 06:29:51;;;;;;;17.52;8.27;;;-5.60;84.60;;;;;;5055401;28;20045;-77
2023/02/24 06:32:18;;;;;;;16.83;11.10;;;-5.70;85.50;;;;;;5051539;28;20037;-79
2023/02/24 06:34:44;;;;;;;;;;;-5.70;86.50;;;;;;5060131;28;20100;-79
2023/02/24 06:37:13;;;;;;;18.08;9.15;;;-5.60;87.00;;;;;;5049210;28;19905;-79
2023/02/24 06:39:39;;;;;;;18.83;10.07;;;-5.60;87.00;;;;;;5052162;28;20100;-79
2023/02/24 06:42:07;;;;;;;14.90;8.80;;;-5.60;87.30;;;;;;5051961;28;20855;-79
2023/02/24 06:44:37;;;;;;;17.27;9.52;;;-5.60;87.70;;;;;;5056595;28;20036;-78
2023/02/24 06:47:05;;;;;;;19.52;9.23;;;-5.50;88.30;;;;;;5059279;28;20092;-80
2023/02/24 06:49:31;;;;;;;20.20;9.10;;;-5.50;88.70;;;;;;5054527;28;20026;-78
2023/02/24 06:51:58;;;;;;;14.18;8.65;;;-5.60;89.10;;;;;;5050838;28;20520;-79
2023/02/24 06:54:29;;;;;;;13.48;7.80;;;-5.70;89.60;;;;;;5061317;28;20021;-79
2023/02/24 06:56:58;;;;;;;15.70;9.32;;;-5.70;90.10;;;;;;5052630;28;20049;-79
2023/02/24 06:59:27;;;;;;;12.45;8.15;;;-5.70;90.30;;;;;;5040485;28;20104;-79
2023/02/24 07:02:02;;;;;;;21.63;11.63;;;-5.70;90.40;;;;;;5056713;28;20033;-78
2023/02/24 07:04:28;;;;;;;18.13;10.63;;;-5.60;90.60;;;;;;5039062;28;20017;-79
2023/02/24 07:07:01;;;;;;;19.33;9.73;;;-5.60;90.70;;;;;;5057849;28;20055;-79
2023/02/24 07:09:29;;;;;;;17.33;10.27;;;-5.60;91.00;;;;;;5053442;28;20061;-78
2023/02/24 07:11:56;;;;;;;17.85;10.40;;;-5.50;91.20;;;;;;5047715;28;20037;-78
2023/02/24 07:14:24;;;;;;;15.20;8.73;;;-5.50;91.30;;;;;;5057957;28;20017;-78
2023/02/24 07:16:52;;;;;;;17.52;9.77;;;-5.50;91.40;;;;;;5056266;28;20401;-79
2023/02/24 07:19:24;;;;;;;18.02;9.00;;;-5.50;91.60;;;;;;5056069;28;20013;-80
2023/02/24 07:21:58;;;;;;;14.05;8.50;;;-5.50;91.90;;;;;;5058448;28;20028;-80
2023/02/24 07:24:31;;;;;;;18.27;9.77;;;-5.40;92.00;;;;;;5058532;28;20021;-78
2023/02/24 07:27:03;;;;;;;21.52;9.27;;;-5.50;92.20;;;;;;5058387;28;20070;-77
2023/02/24 07:29:31;;;;;;;18.95;10.75;;;-5.50;92.50;;;;;;5056503;28;20040;-79
2023/02/24 07:32:00;;;;;;;;;;;-5.40;92.60;;;;;;5042925;28;20035;-78
2023/02/24 07:34:27;;;;;;;16.33;10.40;;;-5.40;92.60;;;;;;5056307;28;19908;-79
2023/02/24 07:36:54;;;;;;;16.17;9.93;;;-5.40;92.90;;;;;;5038187;28;20025;-77
2023/02/24 07:39:21;;;;;;;16.88;9.55;;;-5.30;93.20;;;;;;5058601;28;20031;-79
2023/02/24 07:41:50;;;;;;;15.70;8.60;;;-5.30;93.20;;;;;;5067431;28;20013;-79
2023/02/24 07:44:18;;;;;;;16.90;9.90;;;-5.20;93.40;;;;;;5062096;28;20058;-79
2023/02/24 07:46:44;;;;;;;19.85;9.57;;;-5.20;93.30;;;;;;5040976;28;20116;-79
2023/02/24 07:49:17;;;;;;;17.17;10.32;;;-5.10;93.50;;;;;;5031196;28;20122;-78
2023/02/24 07:51:43;;;;;;;20.83;10.30;;;-5.10;93.60;;;;;;5060216;28;20081;-79
2023/02/24 07:54:10;;;;;;;18.33;9.57;;;-5.00;93.60;;;;;;5061375;28;20029;-77
2023/02/24 07:56:44;;;;;;;21.40;10.20;;;-5.00;93.40;;;;;;5059103;28;20035;-77
2023/02/24 07:59:14;;;;;;;21.95;10.77;;;-5.10;93.80;;;;;;5057456;28;20492;-80
2023/02/24 08:01:48;;;;;;;17.02;11.18;;;-5.10;94.10;;;;;;5048168;28;20045;-80
2023/02/24 08:04:19;;;;;;;18.55;10.18;;;-5.00;94.40;;;;;;5045437;28;20052;-78
2023/02/24 08:06:49;;;;;;;19.55;10.65;;;-5.00;94.50;;;;;;5047109;28;20042;-78
2023/02/24 08:09:19;;;;;;;19.55;10.45;;;-5.00;94.40;;;;;;5050774;28;20078;-78
2023/02/24 08:11:51;;;;;;;22.65;12.50;;;-5.00;94.60;;;;;;5052728;28;20206;-78
2023/02/24 08:14:33;;;;;;;21.85;10.82;;;-4.90;94.50;;;;;;5051623;28;20384;-79
2023/02/24 08:17:04;;;;;;;19.10;10.90;;;-5.00;94.40;;;;;;5030736;28;20032;-78
2023/02/24 08:19:38;;;;;;;20.58;9.38;;;-5.00;94.60;;;;;;5032605;28;20477;-80
2023/02/24 08:22:19;;;;;;;17.73;12.18;;;-4.80;94.80;;;;;;5041723;28;20104;-79
2023/02/24 08:25:06;;;;;;;20.52;12.75;;;-4.80;94.90;;;;;;5055236;28;20017;-81
2023/02/24 08:27:39;;;;;;;21.65;11.65;;;-4.80;94.70;;;;;;5054556;28;20024;-80
2023/02/24 08:30:22;;;;;;;25.10;11.60;;;-4.70;94.90;;;;;;5054674;28;20020;-80
2023/02/24 08:32:55;;;;;;;14.98;10.35;;;-4.70;94.80;;;;;;5056360;28;20385;-79
2023/02/24 08:35:30;;;;;;;20.05;10.68;;;-4.70;94.70;;;;;;5035851;28;20036;-79
2023/02/24 08:38:04;;;;;;;19.92;11.38;;;-4.70;94.70;;;;;;5055221;28;20112;-78
2023/02/24 08:40:49;;;;;;;20.83;9.98;;;-4.70;94.90;;;;;;5048000;28;20022;-80
2023/02/24 08:43:29;;;;;;;21.30;10.90;;;-4.70;94.90;;;;;;5050676;28;20021;-79
2023/02/24 08:46:16;;;;;;;20.48;9.80;;;-4.70;94.80;;;;;;5055697;28;20474;-80
2023/02/24 08:48:45;;;;;;;;;;;-4.80;95.10;;;;;;5040206;28;20029;-79
2023/02/24 08:51:27;;;;;;;23.25;11.23;;;-4.80;95.00;;;;;;5037998;28;19970;-80
2023/02/24 08:53:55;;;;;;;19.98;11.85;;;-4.80;95.20;;;;;;5051300;28;20521;-79
2023/02/24 08:56:26;;;;;;;20.00;11.10;;;-4.70;95.50;;;;;;5056800;28;20104;-80
2023/02/24 08:59:04;;;;;;;30.08;12.82;;;-4.70;95.50;;;;;;5046022;28;20025;-77
2023/02/24 09:01:35;;;;;;;;;;;-4.70;95.80;;;;;;5049232;28;20078;-83
2023/02/24 09:04:10;;;;;;;22.83;12.05;;;-4.50;95.80;;;;;;5049473;28;19913;-83
2023/02/24 09:06:47;;;;;;;22.42;11.95;;;-4.50;96.00;;;;;;5059992;28;20013;-82
2023/02/24 09:09:16;;;;;;;23.38;12.07;;;-4.30;96.00;;;;;;5027968;28;20025;-83
2023/02/24 09:11:56;;;;;;;25.05;12.10;;;-4.20;95.90;;;;;;5060226;28;20106;-81
2023/02/24 09:14:28;;;;;;;18.92;12.43;;;-4.10;96.10;;;;;;5039144;28;20033;-81
2023/02/24 09:17:13;;;;;;;22.25;13.55;;;-4.00;96.10;;;;;;5050410;28;20032;-83
2023/02/24 09:22:31;;;;;;;26.85;11.50;;;-3.80;95.80;;;;;;5045548;28;20021;-83
2023/02/24 09:25:16;;;;;;;24.35;12.52;;;-3.80;95.60;;;;;;5050966;28;20025;-81
2023/02/24 09:27:51;;;;;;;21.38;13.77;;;-3.80;95.70;;;;;;5043729;28;20136;-82
2023/02/24 09:30:52;;;;;;;22.17;12.82;;;-3.80;96.00;;;;;;5049112;28;20044;-84
2023/02/24 09:33:19;;;;;;;20.85;10.68;;;-3.70;96.10;;;;;;5058847;28;20094;-84
2023/02/24 09:36:09;;;;;;;20.38;11.38;;;-3.70;95.90;;;;;;5043221;28;20410;-84
2023/02/24 09:39:08;;;;;;;26.63;11.25;;;-3.70;96.00;;;;;;5040020;28;20029;-82
2023/02/24 09:41:52;;;;;;;22.23;12.52;;;-3.70;96.10;;;;;;5042156;28;20027;-83
2023/02/24 09:44:43;;;;;;;24.60;11.65;;;-3.80;96.10;;;;;;5062503;28;20045;-82
2023/02/24 09:47:29;;;;;;;17.17;9.43;;;-3.70;96.10;;;;;;5057529;28;20079;-81
2023/02/24 09:50:44;;;;;;;26.13;14.18;;;-3.70;96.10;;;;;;5044537;28;20454;-81
2023/02/24 09:53:17;;;;;;;18.15;10.80;;;-3.80;96.00;;;;;;5037648;28;20046;-79
2023/02/24 09:56:02;;;;;;;25.45;12.13;;;-3.70;96.40;;;;;;5064175;28;20396;-83
2023/02/24 09:58:49;;;;;;;22.98;12.95;;;-3.60;96.70;;;;;;5042141;28;20033;-82
2023/02/24 10:01:52;;;;;;;25.33;12.98;;;-3.50;96.60;;;;;;5069832;28;20021;-83
2023/02/24 10:04:28;;;;;;;24.30;13.27;;;-3.40;96.60;;;;;;5063754;28;20029;-86
2023/02/24 10:07:14;;;;;;;27.20;11.85;;;-3.30;96.60;;;;;;5060063;28;20073;-84
2023/02/24 10:09:51;;;;;;;24.10;12.13;;;-3.20;96.60;;;;;;5058959;28;20025;-86
2023/02/24 10:12:16;;;;;;;30.85;12.60;;;-3.20;96.50;;;;;;5043045;28;20516;-85
2023/02/24 10:15:17;;;;;;;19.48;11.27;;;-3.20;96.60;;;;;;5061304;28;20033;-80
2023/02/24 10:17:46;;;;;;;24.13;14.15;;;-3.10;96.80;;;;;;5054065;28;20149;-79
2023/02/24 10:23:44;;;;;;;23.83;14.45;;;-3.00;96.70;;;;;;5057792;28;20382;-80
2023/02/24 10:26:46;;;;;;;21.60;11.95;;;-2.90;96.70;;;;;;5059310;28;20036;-82
2023/02/24 10:29:37;;;;;;;34.65;18.27;;;-2.50;99.90;;;;;;5045301;28;20057;-83
2023/02/24 10:32:32;;;;;;;26.35;13.88;;;-2.50;99.20;;;;;;5030119;28;20029;-84
2023/02/24 10:35:02;;;;;;;22.25;12.88;;;-2.60;96.50;;;;;;5066871;28;20474;-82
2023/02/24 10:37:29;;;;;;;26.40;14.60;;;-2.50;96.40;;;;;;5050430;28;20093;-82
2023/02/24 10:40:09;;;;;;;21.10;11.53;;;-2.50;96.10;;;;;;5069781;28;20082;-82
2023/02/24 10:42:43;;;;;;;26.38;15.07;;;-2.50;96.20;;;;;;5061850;28;20025;-82
2023/02/24 10:45:24;;;;;;;27.42;14.50;;;-2.50;96.20;;;;;;5060721;28;20125;-81
2023/02/24 10:47:56;;;;;;;38.53;20.10;;;-2.40;95.90;;;;;;5056515;28;20085;-80
2023/02/24 10:50:30;;;;;;;26.00;12.68;;;-2.40;95.90;;;;;;5056307;28;20017;-81
2023/02/24 10:55:52;;;;;;;30.65;17.67;;;-2.50;96.20;;;;;;5047412;28;20429;-82
2023/02/24 11:01:53;;;;;;;26.73;13.65;;;-2.50;95.90;;;;;;4990395;28;20499;-82
2023/02/24 11:07:08;;;;;;;44.83;20.45;;;-2.50;96.20;;;;;;5056661;28;20041;-82
2023/02/24 11:09:42;;;;;;;22.55;12.98;;;-2.50;96.10;;;;;;5032576;28;20037;-82
2023/02/24 11:18:07;;;;;;;24.88;13.85;;;-2.40;95.80;;;;;;5058000;28;20035;-82
2023/02/24 11:20:39;;;;;;;25.77;13.10;;;-2.30;95.80;;;;;;5056698;28;20040;-82
2023/02/24 11:23:08;;;;;;;24.17;15.60;;;-2.30;95.80;;;;;;5038542;28;20024;-82
2023/02/24 11:25:44;;;;;;;20.80;14.05;;;-2.40;95.60;;;;;;5049343;28;20021;-81
2023/02/24 11:28:31;;;;;;;29.48;15.90;;;-2.40;95.60;;;;;;5052686;28;20029;-83
2023/02/24 11:31:27;;;;;;;31.20;18.02;;;-2.30;95.70;;;;;;5054096;28;20025;-81
2023/02/24 11:34:03;;;;;;;27.13;14.73;;;-2.30;95.50;;;;;;5057832;28;20021;-80
2023/02/24 11:36:36;;;;;;;29.27;12.95;;;-2.30;95.60;;;;;;5058106;28;20040;-80
2023/02/24 11:39:39;;;;;;;23.50;14.57;;;-2.40;95.80;;;;;;5059647;28;20021;-80
2023/02/24 11:42:12;;;;;;;24.42;14.63;;;-2.50;95.50;;;;;;5061082;28;20043;-81
2023/02/24 11:44:47;;;;;;;24.25;15.23;;;-2.40;95.70;;;;;;5063306;28;20024;-81
2023/02/24 11:47:17;;;;;;;30.13;16.63;;;-2.50;95.80;;;;;;5045952;28;20059;-82
2023/02/24 11:49:52;;;;;;;28.83;17.27;;;-2.50;95.90;;;;;;5056511;28;20116;-82
2023/02/24 11:52:28;;;;;;;30.65;15.00;;;-2.40;95.80;;;;;;5038689;28;20033;-83
2023/02/24 11:54:57;;;;;;;27.73;14.57;;;-2.30;95.90;;;;;;5058319;28;20070;-85
2023/02/24 11:57:40;;;;;;;30.75;16.67;;;-2.30;95.80;;;;;;5041987;28;20017;-82
2023/02/24 12:00:26;;;;;;;25.90;15.15;;;-2.30;95.80;;;;;;5053869;28;20399;-83
2023/02/24 12:02:52;;;;;;;26.63;14.77;;;-2.30;95.80;;;;;;5060337;28;20024;-85
2023/02/24 12:05:23;;;;;;;27.55;14.77;;;-2.30;95.90;;;;;;5041703;28;20025;-83
2023/02/24 12:07:58;;;;;;;31.23;15.50;;;-2.30;95.80;;;;;;5063383;28;20021;-86
2023/02/24 12:10:30;;;;;;;22.85;14.35;;;-2.30;95.60;;;;;;5071463;28;20048;-84
2023/02/24 12:13:40;;;;;;;22.85;13.77;;;-2.30;95.60;;;;;;5061920;28;20098;-85
2023/02/24 12:16:32;;;;;;;30.83;15.43;;;-2.40;95.60;;;;;;5052086;28;20083;-85
2023/02/24 12:19:05;;;;;;;28.20;13.43;;;-2.50;95.70;;;;;;5065551;28;20035;-86
2023/02/24 12:21:38;;;;;;;20.73;13.50;;;-2.50;96.00;;;;;;5050183;28;20033;-84
2023/02/24 12:24:05;;;;;;;23.48;13.35;;;-2.50;96.00;;;;;;5042916;28;20048;-84
2023/02/24 12:26:41;;;;;;;28.73;14.73;;;-2.60;96.00;;;;;;5062191;28;20021;-82
2023/02/24 12:29:47;;;;;;;23.60;13.98;;;-2.60;96.00;;;;;;5054714;28;20044;-83
2023/02/24 12:32:46;;;;;;;23.35;14.30;;;-2.60;96.30;;;;;;5059663;28;20032;-84
2023/02/24 12:35:30;;;;;;;23.02;14.75;;;-2.60;96.20;;;;;;5061161;28;20074;-84
2023/02/24 12:38:27;;;;;;;27.83;15.65;;;-2.60;96.30;;;;;;5040536;28;20125;-85
2023/02/24 12:40:53;;;;;;;26.30;15.07;;;-2.70;96.20;;;;;;5023699;28;20501;-84
2023/02/24 12:43:44;;;;;;;23.58;15.55;;;-2.70;96.20;;;;;;5061326;28;20029;-84
2023/02/24 12:46:31;;;;;;;26.95;14.95;;;-2.70;96.20;;;;;;5064710;28;20028;-84
2023/02/24 12:49:31;;;;;;;29.08;14.32;;;-2.60;96.10;;;;;;5058065;28;20025;-81
2023/02/24 12:52:27;;;;;;;30.50;15.55;;;-2.60;96.10;;;;;;5074742;28;20477;-84
2023/02/24 12:54:58;;;;;;;27.33;15.90;;;-2.60;96.10;;;;;;5055781;28;20115;-85
2023/02/24 12:57:47;;;;;;;22.38;13.60;;;-2.60;96.00;;;;;;5056168;28;20020;-85
2023/02/24 13:00:31;;;;;;;28.75;16.40;;;-2.60;96.10;;;;;;5043547;28;20025;-86
2023/02/24 13:03:13;;;;;;;25.90;15.93;;;-2.60;96.10;;;;;;5045282;28;20048;-86
2023/02/24 13:05:51;;;;;;;27.83;14.85;;;-2.50;96.20;;;;;;5063225;28;20029;-85
2023/02/24 13:08:41;;;;;;;25.75;14.05;;;-2.50;96.30;;;;;;5050996;28;20029;-85
2023/02/24 13:11:26;;;;;;;25.42;15.05;;;-2.50;96.40;;;;;;5033412;28;20133;-84
2023/02/24 13:14:06;;;;;;;26.92;13.90;;;-2.50;96.40;;;;;;5045349;28;20092;-83
2023/02/24 13:16:33;;;;;;;28.23;15.77;;;-2.60;96.50;;;;;;5022397;28;20123;-85
2023/02/24 13:19:20;;;;;;;20.48;12.32;;;-2.60;96.60;;;;;;5031694;28;20103;-83
2023/02/24 13:22:02;;;;;;;24.33;14.00;;;-2.60;96.60;;;;;;5028415;28;20327;-85
2023/02/24 13:24:28;;;;;;;24.27;15.02;;;-2.60;96.40;;;;;;5023722;28;20018;-84
2023/02/24 13:27:16;;;;;;;25.40;13.88;;;-2.60;96.30;;;;;;5027422;28;20037;-83
2023/02/24 13:29:50;;;;;;;28.85;14.98;;;-2.60;96.30;;;;;;5030412;28;20037;-84
2023/02/24 13:32:44;;;;;;;26.98;15.88;;;-2.60;96.30;;;;;;5050378;28;20056;-85
2023/02/24 13:35:13;;;;;;;27.20;14.77;;;-2.60;96.30;;;;;;5010192;28;20056;-85
2023/02/24 13:37:40;;;;;;;26.02;14.88;;;-2.60;96.40;;;;;;5041814;28;20066;-82
2023/02/24 13:40:18;;;;;;;27.73;14.57;;;-2.60;96.50;;;;;;5038779;28;20072;-84
2023/02/24 13:43:00;;;;;;;27.77;14.20;;;-2.60;96.60;;;;;;5057452;28;20021;-83